createdAt,value
2022-10-15T00:03:43.468Z,85.9
2022-10-15T00:09:34.805Z,85.8
2022-10-15T00:15:35.082Z,85.9
2022-10-15T00:21:36.471Z,85.8
2022-10-15T00:27:42.077Z,85.9
2022-10-15T00:33:38.673Z,85.9
2022-10-15T00:39:27.947Z,86.1
2022-10-15T00:45:35.971Z,86
2022-10-15T00:51:25.760Z,86
2022-10-15T00:57:26.535Z,86
2022-10-15T01:03:37.436Z,86.1
2022-10-15T01:09:33.289Z,86.1
2022-10-15T01:15:25.770Z,86.1
2022-10-15T01:21:25.821Z,85.9
2022-10-15T01:27:26.054Z,85.9
2022-10-15T01:33:25.771Z,85.9
2022-10-15T01:39:25.800Z,85.9
2022-10-15T01:45:25.878Z,86
2022-10-15T01:51:26.584Z,86
2022-10-15T01:57:27.328Z,85.9
2022-10-15T02:03:27.542Z,86
2022-10-15T02:09:26.075Z,86
2022-10-15T02:15:26.479Z,85.9
2022-10-15T02:21:25.845Z,85.9
2022-10-15T02:27:26.667Z,86
2022-10-15T02:33:28.617Z,86.1
2022-10-15T02:39:26.893Z,86.1
2022-10-15T02:45:40.184Z,86.2
2022-10-15T02:51:26.897Z,86.1
2022-10-15T02:57:28.044Z,86.1
2022-10-15T03:03:27.170Z,86.1
2022-10-15T03:09:27.821Z,86.2
2022-10-15T03:15:36.322Z,86.2
2022-10-15T03:21:26.711Z,86.2
2022-10-15T03:27:26.301Z,86.2
2022-10-15T03:33:27.059Z,86.2
2022-10-15T03:39:26.192Z,86.2
2022-10-15T03:45:32.141Z,86.1
2022-10-15T03:51:26.797Z,86.1
2022-10-15T03:57:26.814Z,86
2022-10-15T04:03:30.325Z,86
2022-10-15T04:09:25.991Z,86
2022-10-15T04:15:35.697Z,86
2022-10-15T04:21:27.150Z,85.8
2022-10-15T04:27:27.865Z,85.5
2022-10-15T04:33:26.819Z,85.4
2022-10-15T04:39:26.194Z,85.4
2022-10-15T04:45:32.053Z,85.1
2022-10-15T04:51:26.719Z,84.8
2022-10-15T04:57:28.216Z,84.7
2022-10-15T05:03:31.004Z,84.8
2022-10-15T05:09:28.366Z,85
2022-10-15T05:15:36.229Z,85.3
2022-10-15T05:21:26.541Z,85.3
2022-10-15T05:27:26.623Z,85.5
2022-10-15T05:33:27.117Z,85.6
2022-10-15T05:39:26.831Z,85.6
2022-10-15T05:45:33.847Z,85.6
2022-10-15T05:51:28.269Z,85.5
2022-10-15T05:57:27.704Z,85.5
2022-10-15T06:03:26.797Z,85.5
2022-10-15T06:09:27.900Z,85.5
2022-10-15T06:15:38.173Z,85.5
2022-10-15T06:21:25.874Z,85.4
2022-10-15T06:27:27.186Z,85
2022-10-15T06:33:26.314Z,84.9
2022-10-15T06:39:29.000Z,85
2022-10-15T06:45:33.704Z,85.2
2022-10-15T06:51:26.560Z,85.2
2022-10-15T06:57:26.268Z,85
2022-10-15T07:03:26.826Z,84.8
2022-10-15T07:09:26.755Z,84.7
2022-10-15T07:15:36.721Z,84.6
2022-10-15T07:21:32.635Z,84.6
2022-10-15T07:27:27.298Z,84.4
2022-10-15T07:33:26.260Z,84.5
2022-10-15T07:39:26.690Z,84.6
2022-10-15T07:45:34.936Z,84.4
2022-10-15T07:51:26.056Z,84.2
2022-10-15T07:57:28.581Z,83.9
2022-10-15T08:03:28.044Z,83.6
2022-10-15T08:09:36.498Z,83.1
2022-10-15T08:15:34.589Z,83.1
2022-10-15T08:21:33.901Z,82.7
2022-10-15T08:27:26.253Z,82.7
2022-10-15T08:33:26.505Z,82.4
2022-10-15T08:39:28.988Z,82.1
2022-10-15T08:45:37.859Z,81.8
2022-10-15T08:51:26.308Z,81.6
2022-10-15T08:57:26.655Z,81.3
2022-10-15T09:03:25.819Z,81.3
2022-10-15T09:09:26.120Z,81.6
2022-10-15T09:15:27.841Z,81.7
2022-10-15T09:21:27.029Z,81.7
2022-10-15T09:27:26.910Z,81.5
2022-10-15T09:33:25.849Z,81.1
2022-10-15T09:39:25.790Z,81.2
2022-10-15T09:45:28.460Z,81.2
2022-10-15T09:51:25.861Z,77.9
2022-10-15T09:57:25.803Z,76.7
2022-10-15T10:03:26.558Z,76.5
2022-10-15T10:09:25.958Z,77
2022-10-15T10:15:32.038Z,76.5
2022-10-15T10:21:26.431Z,76.5
2022-10-15T10:27:28.186Z,77.5
2022-10-15T10:33:26.376Z,77.4
2022-10-15T10:39:26.983Z,78.3
2022-10-15T10:51:27.928Z,75.2
2022-10-15T10:57:26.668Z,74
2022-10-15T11:03:26.707Z,73.7
2022-10-15T11:09:26.488Z,72.3
2022-10-15T11:15:25.825Z,72.3
2022-10-15T11:21:25.867Z,73.1
2022-10-15T11:27:26.030Z,72.7
2022-10-15T11:33:25.758Z,72.7
2022-10-15T11:39:25.685Z,71.9
2022-10-15T11:45:25.808Z,71.9
2022-10-15T11:51:25.848Z,71.9
2022-10-15T11:57:26.158Z,72.1
2022-10-15T12:03:26.677Z,72.3
2022-10-15T12:09:26.795Z,72.9
2022-10-15T12:15:25.985Z,72.6
2022-10-15T12:21:26.170Z,72.6
2022-10-15T12:27:26.420Z,72.6
2022-10-15T12:33:29.225Z,72.9
2022-10-15T12:39:51.217Z,72.9
2022-10-15T12:45:35.796Z,72.9
2022-10-15T12:51:26.268Z,72.6
2022-10-15T12:57:26.332Z,72.3
2022-10-15T13:03:25.997Z,71.7
2022-10-15T13:09:26.309Z,71.8
2022-10-15T13:15:26.518Z,72.1
2022-10-15T13:21:26.744Z,72.4
2022-10-15T13:27:26.642Z,72.2
2022-10-15T13:33:27.166Z,71.2
2022-10-15T13:39:26.687Z,69.5
2022-10-15T13:45:29.532Z,69.5
2022-10-15T13:51:26.435Z,69.6
2022-10-15T13:57:26.151Z,70.7
2022-10-15T14:03:26.863Z,71.6
2022-10-15T14:09:26.644Z,72.8
2022-10-15T14:15:38.913Z,72.9
2022-10-15T14:21:26.067Z,73
2022-10-15T14:27:26.296Z,71.4
2022-10-15T14:33:26.253Z,70.6
2022-10-15T14:39:25.853Z,70.2
2022-10-15T14:45:26.516Z,69.6
2022-10-15T14:51:26.203Z,69
2022-10-15T14:57:27.718Z,69.9
2022-10-15T15:03:26.803Z,71.7
2022-10-15T15:09:26.246Z,73.5
2022-10-15T15:15:38.801Z,74.2
2022-10-15T15:21:28.805Z,74.8
2022-10-15T15:27:42.442Z,74.7
2022-10-15T15:33:39.554Z,74.1
2022-10-15T15:39:37.237Z,73.8
2022-10-15T15:45:37.821Z,71.4
2022-10-15T15:51:34.330Z,70.2
2022-10-15T15:57:28.202Z,69.8
2022-10-15T16:03:28.432Z,69.4
2022-10-15T16:09:26.342Z,71.5
2022-10-15T16:15:37.189Z,73.9
2022-10-15T16:21:26.858Z,74.9
2022-10-15T16:27:26.900Z,75.5
2022-10-15T16:33:27.130Z,75.8
2022-10-15T16:39:26.309Z,76.2
2022-10-15T16:45:40.577Z,74.5
2022-10-15T16:51:27.016Z,75.2
2022-10-15T16:57:26.293Z,74.6
2022-10-15T17:03:27.353Z,74.6
2022-10-15T17:09:38.057Z,74.6
2022-10-15T17:15:37.395Z,74.7
2022-10-15T17:21:32.923Z,74.8
2022-10-15T17:27:33.287Z,74
2022-10-15T17:33:36.698Z,73.9
2022-10-15T17:39:29.375Z,74.1
2022-10-15T17:45:32.443Z,74.8
2022-10-15T17:51:28.534Z,75.5
2022-10-15T17:57:29.243Z,75.7
2022-10-15T18:03:29.929Z,75.8
2022-10-15T18:09:36.875Z,75.8
2022-10-15T18:15:39.744Z,76
2022-10-15T18:21:32.546Z,76.4
2022-10-15T18:27:43.965Z,76.5
2022-10-15T18:33:44.336Z,77.1
2022-10-15T18:39:36.719Z,77.6
2022-10-15T18:45:40.336Z,78.1
2022-10-15T18:51:35.417Z,78.3
2022-10-15T18:57:26.432Z,78.4
2022-10-15T19:03:27.131Z,78.6
2022-10-15T19:09:27.288Z,78.9
2022-10-15T19:15:27.764Z,79.1
2022-10-15T19:21:26.285Z,79.4
2022-10-15T19:27:27.688Z,79.9
2022-10-15T19:33:26.941Z,79.9
2022-10-15T19:39:27.134Z,80.1
2022-10-15T19:45:26.712Z,80.1
2022-10-15T19:51:26.316Z,80.1
2022-10-15T19:57:26.713Z,80.2
2022-10-15T20:03:27.548Z,80.4
2022-10-15T20:09:27.140Z,80.5
2022-10-15T20:15:29.058Z,80.5
2022-10-15T20:21:26.645Z,80.8
2022-10-15T20:27:26.421Z,80.9
2022-10-15T20:33:27.215Z,81.1
2022-10-15T20:39:26.364Z,81.1
2022-10-15T20:45:31.236Z,80.9
2022-10-15T20:51:28.632Z,81.1
2022-10-15T20:57:27.219Z,81.1
2022-10-15T21:03:27.084Z,81.3
2022-10-15T21:09:27.050Z,81.6
2022-10-15T21:15:27.943Z,81.7
2022-10-15T21:21:26.499Z,81.7
2022-10-15T21:27:27.453Z,82.1
2022-10-15T21:33:26.391Z,82.3
2022-10-15T21:39:26.772Z,82.3
2022-10-15T21:45:27.386Z,82
2022-10-15T21:51:26.294Z,82
2022-10-15T21:57:27.739Z,82
2022-10-15T22:03:28.166Z,82
2022-10-15T22:09:26.820Z,82.1
2022-10-15T22:15:26.416Z,81.8
2022-10-15T22:21:26.527Z,81.8
2022-10-15T22:27:26.710Z,81.8
2022-10-15T22:33:27.209Z,82.2
2022-10-15T22:39:27.469Z,82
2022-10-15T22:45:27.256Z,82.4
2022-10-15T22:51:26.380Z,82.5
2022-10-15T22:57:26.291Z,82.1
2022-10-15T23:03:26.774Z,82.2
2022-10-15T23:09:27.174Z,82.2
2022-10-15T23:15:27.945Z,82
2022-10-15T23:21:27.292Z,82.2
2022-10-15T23:27:26.705Z,82.3
2022-10-15T23:33:27.427Z,82.7
2022-10-15T23:39:27.183Z,82.7
2022-10-15T23:45:27.725Z,82.8
2022-10-15T23:51:26.370Z,82.5
2022-10-15T23:57:27.040Z,82.3
